createdAt,value
2018-06-23T00:00:12.117Z,3.77
2018-06-23T00:02:40.481Z,3.33
2018-06-23T00:05:08.869Z,4.53
2018-06-23T00:07:37.247Z,3.93
2018-06-23T00:10:05.707Z,3.57
2018-06-23T00:12:34.065Z,3.27
2018-06-23T00:15:02.461Z,3.73
2018-06-23T00:17:30.833Z,3.47
2018-06-23T00:19:59.218Z,3.53
2018-06-23T00:22:27.603Z,3.73
2018-06-23T00:24:56.018Z,3.20
2018-06-23T00:27:24.377Z,3.50
2018-06-23T00:29:52.794Z,3.80
2018-06-23T00:32:21.167Z,3.00
2018-06-23T00:34:49.555Z,3.80
2018-06-23T00:37:17.957Z,4.00
2018-06-23T00:39:46.322Z,4.07
2018-06-23T00:42:14.708Z,4.03
2018-06-23T00:44:43.081Z,5.10
2018-06-23T00:47:11.487Z,4.57
2018-06-23T00:49:39.853Z,4.33
2018-06-23T00:52:08.242Z,3.57
2018-06-23T00:54:36.608Z,3.77
2018-06-23T00:57:06.010Z,3.40
2018-06-23T00:59:42.550Z,5.50
2018-06-23T01:02:11.222Z,5.17
2018-06-23T01:04:39.618Z,2.83
2018-06-23T01:07:09.215Z,3.10
2018-06-23T01:09:37.868Z,4.80
2018-06-23T01:12:06.889Z,3.90
2018-06-23T01:14:35.654Z,4.90
2018-06-23T01:17:04.220Z,4.57
2018-06-23T01:19:32.585Z,4.97
2018-06-23T01:22:00.979Z,4.00
2018-06-23T01:24:29.359Z,3.97
2018-06-23T01:26:57.776Z,5.47
2018-06-23T01:29:26.181Z,3.90
2018-06-23T01:31:54.590Z,5.50
2018-06-23T01:34:22.971Z,5.10
2018-06-23T01:36:51.706Z,3.63
2018-06-23T01:39:20.078Z,5.57
2018-06-23T01:41:48.480Z,4.00
2018-06-23T01:44:16.870Z,3.80
2018-06-23T01:46:45.303Z,4.70
2018-06-23T01:49:13.674Z,3.73
2018-06-23T01:51:42.074Z,5.20
2018-06-23T01:54:10.450Z,4.77
2018-06-23T01:56:38.865Z,3.70
2018-06-23T01:59:07.230Z,3.93
2018-06-23T02:01:35.606Z,4.17
2018-06-23T02:04:03.999Z,3.63
2018-06-23T02:06:32.365Z,3.67
2018-06-23T02:09:00.758Z,4.80
2018-06-23T02:11:29.175Z,4.97
2018-06-23T02:14:03.002Z,5.13
2018-06-23T02:16:36.647Z,4.57
2018-06-23T02:19:10.516Z,4.83
2018-06-23T02:21:44.329Z,4.10
2018-06-23T02:24:18.122Z,5.00
2018-06-23T02:26:51.790Z,4.10
2018-06-23T02:29:25.510Z,4.80
2018-06-23T02:31:59.202Z,4.20
2018-06-23T02:34:32.917Z,4.50
2018-06-23T02:37:01.289Z,4.90
2018-06-23T02:39:29.703Z,3.30
2018-06-23T02:41:58.085Z,4.00
2018-06-23T02:44:26.485Z,4.57
2018-06-23T02:46:54.854Z,4.97
2018-06-23T02:49:23.252Z,4.27
2018-06-23T02:51:51.631Z,4.00
2018-06-23T02:54:20.026Z,4.20
2018-06-23T02:56:48.402Z,4.87
2018-06-23T02:59:19.121Z,4.67
2018-06-23T03:01:48.138Z,5.90
2018-06-23T03:04:16.907Z,4.50
2018-06-23T03:06:45.301Z,4.17
2018-06-23T03:09:13.754Z,5.37
2018-06-23T03:11:42.133Z,5.03
2018-06-23T03:14:10.526Z,4.40
2018-06-23T03:16:38.986Z,5.00
2018-06-23T03:19:07.611Z,4.80
2018-06-23T03:21:35.992Z,3.90
2018-06-23T03:24:04.370Z,5.53
2018-06-23T03:26:32.766Z,6.10
2018-06-23T03:29:01.138Z,5.90
2018-06-23T03:31:29.534Z,4.83
2018-06-23T03:33:57.916Z,4.07
2018-06-23T03:36:26.314Z,4.00
2018-06-23T03:38:54.697Z,4.23
2018-06-23T03:41:23.099Z,4.83
2018-06-23T03:43:51.503Z,4.60
2018-06-23T03:46:19.914Z,4.57
2018-06-23T03:48:48.295Z,4.53
2018-06-23T03:51:16.694Z,5.90
2018-06-23T03:53:45.066Z,5.37
2018-06-23T03:56:13.475Z,5.17
2018-06-23T03:58:41.854Z,5.47
2018-06-23T04:01:11.036Z,4.70
2018-06-23T04:03:39.414Z,5.20
2018-06-23T04:06:07.818Z,4.37
2018-06-23T04:08:36.278Z,3.10
2018-06-23T04:11:04.886Z,5.30
2018-06-23T04:13:33.759Z,3.80
2018-06-23T04:16:02.257Z,4.83
2018-06-23T04:18:30.633Z,5.13
2018-06-23T04:20:59.029Z,4.60
2018-06-23T04:23:27.406Z,3.87
2018-06-23T04:25:55.806Z,4.37
2018-06-23T04:28:24.174Z,3.80
2018-06-23T04:30:52.652Z,4.27
2018-06-23T04:33:21.021Z,4.10
2018-06-23T04:35:49.413Z,5.80
2018-06-23T04:38:17.781Z,4.50
2018-06-23T04:40:46.187Z,4.20
2018-06-23T04:43:14.562Z,5.77
2018-06-23T04:45:42.935Z,4.20
2018-06-23T04:48:11.329Z,4.80
2018-06-23T04:50:39.707Z,3.90
2018-06-23T04:53:08.107Z,6.23
2018-06-23T04:55:36.483Z,4.00
2018-06-23T04:58:04.887Z,3.73
2018-06-23T05:00:33.368Z,5.90
2018-06-23T05:03:01.687Z,3.50
2018-06-23T05:05:30.079Z,3.50
2018-06-23T05:07:58.482Z,4.57
2018-06-23T05:10:26.886Z,3.37
2018-06-23T05:12:55.289Z,4.87
2018-06-23T05:15:23.733Z,5.00
2018-06-23T05:17:52.129Z,3.00
2018-06-23T05:20:20.648Z,4.10
2018-06-23T05:22:49.033Z,4.17
2018-06-23T05:25:17.407Z,4.30
2018-06-23T05:27:45.803Z,3.80
2018-06-23T05:30:14.174Z,2.93
2018-06-23T05:32:42.578Z,4.23
2018-06-23T05:35:10.945Z,3.10
2018-06-23T05:37:39.399Z,4.77
2018-06-23T05:40:07.757Z,2.37
2018-06-23T05:42:36.167Z,3.87
2018-06-23T05:45:04.592Z,3.43
2018-06-23T05:47:32.990Z,4.33
2018-06-23T05:50:01.368Z,3.33
2018-06-23T05:52:29.765Z,3.93
2018-06-23T05:54:58.143Z,3.13
2018-06-23T05:57:26.550Z,2.90
2018-06-23T05:59:54.926Z,4.73
2018-06-23T06:02:23.349Z,2.87
2018-06-23T06:04:51.719Z,3.20
2018-06-23T06:07:20.094Z,3.80
2018-06-23T06:09:48.539Z,2.63
2018-06-23T06:12:16.931Z,3.97
2018-06-23T06:14:45.338Z,3.70
2018-06-23T06:17:32.178Z,2.80
2018-06-23T06:20:03.755Z,2.90
2018-06-23T06:22:33.216Z,3.13
2018-06-23T06:25:01.615Z,2.80
2018-06-23T06:27:30.019Z,2.67
2018-06-23T06:29:59.009Z,2.57
2018-06-23T06:32:27.883Z,2.20
2018-06-23T06:34:56.306Z,3.30
2018-06-23T06:37:24.678Z,2.93
2018-06-23T06:39:53.082Z,2.63
2018-06-23T06:42:21.478Z,3.30
2018-06-23T06:44:49.882Z,3.30
2018-06-23T06:47:19.186Z,2.60
2018-06-23T06:49:47.801Z,2.70
2018-06-23T06:52:16.191Z,2.33
2018-06-23T06:54:44.952Z,2.67
2018-06-23T06:57:13.363Z,2.87
2018-06-23T06:59:41.776Z,2.40
2018-06-23T07:02:10.157Z,2.63
2018-06-23T07:04:38.550Z,1.70
2018-06-23T07:07:06.935Z,2.50
2018-06-23T07:09:35.350Z,2.93
2018-06-23T07:12:03.718Z,1.70
2018-06-23T07:14:32.105Z,2.17
2018-06-23T07:17:00.473Z,1.97
2018-06-23T07:19:28.876Z,1.77
2018-06-23T07:21:57.255Z,2.20
2018-06-23T07:24:25.663Z,2.27
2018-06-23T07:26:54.038Z,1.70
2018-06-23T07:29:22.460Z,2.90
2018-06-23T07:31:50.850Z,2.90
2018-06-23T07:34:19.289Z,3.73
2018-06-23T07:36:47.649Z,2.47
2018-06-23T07:39:16.022Z,1.87
2018-06-23T07:41:44.423Z,2.27
2018-06-23T07:44:12.810Z,2.53
2018-06-23T07:46:41.237Z,2.60
2018-06-23T07:49:09.595Z,1.67
2018-06-23T07:51:37.986Z,2.50
2018-06-23T07:54:06.350Z,1.70
2018-06-23T07:56:34.746Z,1.27
2018-06-23T07:59:03.157Z,1.00
2018-06-23T08:01:31.568Z,2.60
2018-06-23T08:03:59.968Z,1.50
2018-06-23T08:06:28.370Z,1.90
2018-06-23T08:08:56.734Z,1.90
2018-06-23T08:11:25.145Z,1.30
2018-06-23T08:13:53.514Z,1.30
2018-06-23T08:16:21.934Z,1.87
2018-06-23T08:18:50.297Z,2.40
2018-06-23T08:21:18.694Z,1.83
2018-06-23T08:23:47.070Z,1.60
2018-06-23T08:26:15.508Z,1.77
2018-06-23T08:28:43.875Z,1.77
2018-06-23T08:31:12.270Z,1.47
2018-06-23T08:33:40.644Z,1.47
2018-06-23T08:36:09.058Z,1.83
2018-06-23T08:38:37.431Z,1.90
2018-06-23T08:41:05.903Z,1.57
2018-06-23T08:43:34.283Z,1.70
2018-06-23T08:46:02.691Z,1.70
2018-06-23T08:48:31.083Z,1.70
2018-06-23T08:50:59.469Z,1.80
2018-06-23T08:53:27.840Z,1.57
2018-06-23T08:55:56.243Z,1.43
2018-06-23T08:58:24.620Z,1.87
2018-06-23T09:00:52.996Z,2.00
2018-06-23T09:03:21.390Z,1.93
2018-06-23T09:05:49.770Z,1.60
2018-06-23T09:08:18.162Z,1.20
2018-06-23T09:10:46.568Z,2.23
2018-06-23T09:13:14.960Z,1.20
2018-06-23T09:15:43.338Z,2.03
2018-06-23T09:18:11.726Z,1.77
2018-06-23T09:20:40.103Z,1.77
2018-06-23T09:23:08.501Z,1.83
2018-06-23T09:25:36.952Z,1.40
2018-06-23T09:28:05.431Z,1.20
2018-06-23T09:30:33.828Z,1.50
2018-06-23T09:33:02.231Z,1.70
2018-06-23T09:35:30.616Z,1.50
2018-06-23T09:37:59.019Z,1.50
2018-06-23T09:40:27.390Z,1.90
2018-06-23T09:42:55.799Z,1.57
2018-06-23T09:45:24.190Z,2.30
2018-06-23T09:47:52.583Z,1.33
2018-06-23T09:50:20.963Z,1.37
2018-06-23T09:52:49.357Z,1.80
2018-06-23T09:55:17.734Z,1.60
2018-06-23T09:57:46.130Z,2.47
2018-06-23T10:00:17.277Z,1.70
2018-06-23T10:02:47.423Z,1.83
2018-06-23T10:05:15.794Z,1.37
2018-06-23T10:07:44.191Z,1.90
2018-06-23T10:10:12.590Z,1.70
2018-06-23T10:12:40.977Z,1.20
2018-06-23T10:15:09.366Z,1.50
2018-06-23T10:17:37.734Z,1.73
2018-06-23T10:20:06.142Z,1.40
2018-06-23T10:22:34.522Z,2.47
2018-06-23T10:25:02.922Z,1.90
2018-06-23T10:27:31.303Z,1.80
2018-06-23T10:29:59.694Z,2.13
2018-06-23T10:32:28.070Z,1.93
2018-06-23T10:34:56.469Z,2.10
2018-06-23T10:37:24.858Z,1.10
2018-06-23T10:39:53.249Z,1.90
2018-06-23T10:42:21.629Z,1.83
2018-06-23T10:44:50.035Z,1.70
2018-06-23T10:47:18.402Z,1.60
2018-06-23T10:49:46.805Z,1.83
2018-06-23T10:52:15.191Z,1.87
2018-06-23T10:54:43.587Z,1.87
2018-06-23T10:57:11.964Z,1.67
2018-06-23T10:59:40.404Z,2.03
2018-06-23T11:02:09.006Z,1.67
2018-06-23T11:04:37.435Z,1.90
2018-06-23T11:07:05.994Z,1.70
2018-06-23T11:09:34.582Z,1.60
2018-06-23T11:12:02.950Z,1.80
2018-06-23T11:14:31.373Z,2.20
2018-06-23T11:16:59.754Z,1.80
2018-06-23T11:19:28.829Z,1.50
2018-06-23T11:21:57.202Z,2.30
2018-06-23T11:24:25.749Z,1.83
2018-06-23T11:26:54.097Z,1.47
2018-06-23T11:29:22.506Z,2.10
2018-06-23T11:31:50.886Z,1.70
2018-06-23T11:34:19.294Z,1.67
2018-06-23T11:36:47.675Z,1.73
2018-06-23T11:39:16.069Z,1.60
2018-06-23T11:41:44.470Z,1.33
2018-06-23T11:44:12.863Z,1.40
2018-06-23T11:46:41.392Z,2.40
2018-06-23T11:49:09.809Z,2.30
2018-06-23T11:51:38.226Z,1.70
2018-06-23T11:54:06.605Z,2.00
2018-06-23T11:56:35.019Z,1.97
2018-06-23T11:59:03.390Z,1.77
2018-06-23T12:01:32.092Z,1.80
2018-06-23T12:04:00.482Z,1.60
2018-06-23T12:06:28.879Z,3.07
2018-06-23T12:08:57.249Z,2.30
2018-06-23T12:11:25.666Z,2.60
2018-06-23T12:13:54.043Z,1.73
2018-06-23T12:16:22.434Z,2.30
2018-06-23T12:18:50.801Z,2.10
2018-06-23T12:21:19.217Z,1.80
2018-06-23T12:23:47.596Z,1.67
2018-06-23T12:26:16.015Z,1.77
2018-06-23T12:28:44.378Z,1.73
2018-06-23T12:31:12.790Z,2.47
2018-06-23T12:33:41.158Z,2.30
2018-06-23T12:36:09.562Z,2.30
2018-06-23T12:38:37.942Z,2.50
2018-06-23T12:41:06.357Z,1.67
2018-06-23T12:43:34.730Z,1.83
2018-06-23T12:46:03.131Z,1.87
2018-06-23T12:48:31.500Z,1.87
2018-06-23T12:50:59.923Z,2.57
2018-06-23T12:53:28.306Z,1.90
2018-06-23T12:55:56.698Z,1.80
2018-06-23T12:58:25.098Z,2.07
2018-06-23T13:00:53.510Z,2.47
2018-06-23T13:03:21.937Z,1.87
2018-06-23T13:05:50.313Z,2.30
2018-06-23T13:08:18.702Z,1.97
2018-06-23T13:10:47.096Z,1.97
2018-06-23T13:13:15.579Z,1.83
2018-06-23T13:15:43.950Z,1.70
2018-06-23T13:18:12.338Z,1.90
2018-06-23T13:20:41.220Z,2.03
2018-06-23T13:23:09.731Z,2.90
2018-06-23T13:25:38.190Z,1.47
2018-06-23T13:28:06.597Z,1.77
2018-06-23T13:30:35.034Z,2.43
2018-06-23T13:33:03.457Z,1.87
2018-06-23T13:35:31.846Z,1.67
2018-06-23T13:38:00.243Z,2.07
2018-06-23T13:40:28.632Z,2.90
2018-06-23T13:42:57.043Z,1.90
2018-06-23T13:45:25.422Z,2.57
2018-06-23T13:47:53.931Z,1.47
2018-06-23T13:50:22.306Z,1.60
2018-06-23T13:52:50.755Z,1.77
2018-06-23T13:55:19.147Z,2.53
2018-06-23T13:57:47.551Z,1.73
2018-06-23T14:00:15.922Z,1.70
2018-06-23T14:02:44.317Z,2.07
2018-06-23T14:05:12.686Z,2.07
2018-06-23T14:07:41.085Z,1.70
2018-06-23T14:10:09.502Z,2.27
2018-06-23T14:12:37.897Z,1.70
2018-06-23T14:15:06.595Z,2.50
2018-06-23T14:17:34.958Z,2.03
2018-06-23T14:20:03.383Z,2.20
2018-06-23T14:22:31.760Z,1.73
2018-06-23T14:25:00.159Z,2.67
2018-06-23T14:27:28.549Z,2.00
2018-06-23T14:29:56.942Z,2.50
2018-06-23T14:32:25.321Z,2.20
2018-06-23T14:34:53.723Z,1.83
2018-06-23T14:37:22.102Z,1.77
2018-06-23T14:39:50.502Z,3.17
2018-06-23T14:42:18.874Z,2.63
2018-06-23T14:44:47.270Z,1.70
2018-06-23T14:47:15.655Z,1.93
2018-06-23T14:49:44.055Z,2.00
2018-06-23T14:52:12.431Z,2.47
2018-06-23T14:54:40.825Z,2.20
2018-06-23T14:57:09.231Z,2.00
2018-06-23T14:59:37.694Z,1.70
2018-06-23T15:02:06.022Z,2.00
2018-06-23T15:04:34.417Z,1.90
2018-06-23T15:07:02.786Z,1.93
2018-06-23T15:09:47.490Z,2.40
2018-06-23T15:12:27.293Z,2.00
2018-06-23T15:14:55.686Z,2.00
2018-06-23T15:17:24.071Z,2.53
2018-06-23T15:19:52.470Z,1.80
2018-06-23T15:22:20.855Z,2.87
2018-06-23T15:24:49.258Z,2.17
2018-06-23T15:27:17.670Z,2.00
2018-06-23T15:29:46.071Z,2.40
2018-06-23T15:32:14.455Z,1.43
2018-06-23T15:34:42.867Z,1.50
2018-06-23T15:37:11.245Z,2.60
2018-06-23T15:39:39.642Z,2.10
2018-06-23T15:42:08.030Z,1.50
2018-06-23T15:44:36.435Z,3.07
2018-06-23T15:47:05.063Z,3.20
2018-06-23T15:49:33.455Z,1.83
2018-06-23T15:52:01.827Z,1.80
2018-06-23T15:54:30.243Z,1.70
2018-06-23T15:56:58.614Z,1.73
2018-06-23T15:59:26.981Z,1.97
2018-06-23T16:01:55.370Z,1.90
2018-06-23T16:04:23.742Z,1.97
2018-06-23T16:06:52.133Z,2.17
2018-06-23T16:09:20.536Z,1.77
2018-06-23T16:11:48.978Z,2.00
2018-06-23T16:14:17.362Z,3.60
2018-06-23T16:16:45.767Z,1.87
2018-06-23T16:19:14.137Z,2.17
2018-06-23T16:21:42.530Z,2.00
2018-06-23T16:24:10.915Z,2.90
2018-06-23T16:26:39.323Z,3.20
2018-06-23T16:29:07.702Z,2.30
2018-06-23T16:31:36.694Z,2.23
2018-06-23T16:34:05.096Z,2.37
2018-06-23T16:36:33.499Z,2.10
2018-06-23T16:39:01.873Z,1.80
2018-06-23T16:41:30.279Z,3.00
2018-06-23T16:43:58.659Z,2.33
2018-06-23T16:46:27.059Z,2.27
2018-06-23T16:48:55.518Z,2.00
2018-06-23T16:51:23.914Z,2.00
2018-06-23T16:53:52.306Z,1.80
2018-06-23T16:56:20.697Z,2.10
2018-06-23T16:58:49.078Z,2.80
2018-06-23T17:01:17.559Z,2.67
2018-06-23T17:03:46.010Z,2.27
2018-06-23T17:06:14.364Z,2.13
2018-06-23T17:08:42.746Z,1.90
2018-06-23T17:11:11.344Z,1.83
2018-06-23T17:13:39.804Z,2.27
2018-06-23T17:16:08.226Z,2.33
2018-06-23T17:18:36.602Z,4.37
2018-06-23T17:21:04.991Z,2.80
2018-06-23T17:23:33.394Z,2.67
2018-06-23T17:26:01.775Z,2.50
2018-06-23T17:28:30.180Z,3.23
2018-06-23T17:30:58.560Z,2.30
2018-06-23T17:33:26.953Z,2.83
2018-06-23T17:35:55.326Z,2.33
2018-06-23T17:38:23.753Z,2.13
2018-06-23T17:40:52.145Z,2.20
2018-06-23T17:43:20.650Z,2.10
2018-06-23T17:45:49.046Z,3.10
2018-06-23T17:48:17.496Z,2.23
2018-06-23T17:50:45.966Z,1.77
2018-06-23T17:53:14.374Z,1.87
2018-06-23T17:55:42.760Z,1.90
2018-06-23T17:58:11.161Z,1.97
2018-06-23T18:00:39.539Z,1.80
2018-06-23T18:03:07.947Z,1.87
2018-06-23T18:05:36.335Z,1.67
2018-06-23T18:08:04.757Z,2.37
2018-06-23T18:10:33.159Z,2.03
2018-06-23T18:13:01.556Z,1.67
2018-06-23T18:15:29.934Z,2.00
2018-06-23T18:17:58.330Z,2.37
2018-06-23T18:20:26.700Z,3.80
2018-06-23T18:22:55.120Z,2.07
2018-06-23T18:25:23.522Z,2.33
2018-06-23T18:27:51.923Z,1.17
2018-06-23T18:30:20.290Z,2.43
2018-06-23T18:32:48.698Z,2.07
2018-06-23T18:35:17.066Z,2.00
2018-06-23T18:37:45.443Z,1.83
2018-06-23T18:40:13.842Z,1.80
2018-06-23T18:42:42.214Z,1.67
2018-06-23T18:45:10.619Z,1.77
2018-06-23T18:47:38.986Z,1.87
2018-06-23T18:50:07.377Z,2.20
2018-06-23T18:52:35.767Z,1.50
2018-06-23T18:55:04.219Z,2.57
2018-06-23T18:57:32.598Z,2.23
2018-06-23T19:00:01.015Z,1.90
2018-06-23T19:02:29.385Z,2.13
2018-06-23T19:04:57.799Z,1.57
2018-06-23T19:07:26.194Z,2.03
2018-06-23T19:09:54.618Z,2.33
2018-06-23T19:12:23.005Z,2.70
2018-06-23T19:14:51.405Z,2.47
2018-06-23T19:17:19.799Z,1.93
2018-06-23T19:19:48.197Z,2.10
2018-06-23T19:22:16.579Z,1.93
2018-06-23T19:24:44.991Z,2.00
2018-06-23T19:27:13.370Z,2.30
2018-06-23T19:29:41.786Z,1.73
2018-06-23T19:32:10.163Z,1.67
2018-06-23T19:34:38.574Z,1.87
2018-06-23T19:37:06.958Z,2.57
2018-06-23T19:39:35.395Z,3.67
2018-06-23T19:42:03.785Z,2.33
2018-06-23T19:44:32.186Z,3.70
2018-06-23T19:47:00.631Z,2.20
2018-06-23T19:49:29.005Z,1.77
2018-06-23T19:51:57.382Z,2.00
2018-06-23T19:54:26.227Z,1.80
2018-06-23T19:56:54.627Z,1.90
2018-06-23T19:59:22.993Z,2.47
2018-06-23T20:01:51.410Z,2.00
2018-06-23T20:04:19.800Z,2.47
2018-06-23T20:06:48.200Z,1.50
2018-06-23T20:09:16.579Z,2.17
2018-06-23T20:11:45.008Z,2.00
2018-06-23T20:14:13.382Z,2.40
2018-06-23T20:16:41.793Z,1.50
2018-06-23T20:19:10.181Z,1.60
2018-06-23T20:21:38.587Z,2.07
2018-06-23T20:24:06.963Z,2.00
2018-06-23T20:26:35.370Z,2.40
2018-06-23T20:29:03.757Z,2.03
2018-06-23T20:31:32.201Z,1.83
2018-06-23T20:34:00.587Z,2.50
2018-06-23T20:36:28.985Z,1.90
2018-06-23T20:38:57.366Z,2.03
2018-06-23T20:41:25.794Z,1.83
2018-06-23T20:43:54.172Z,1.80
2018-06-23T20:46:22.574Z,2.50
2018-06-23T20:48:50.941Z,2.27
2018-06-23T20:51:19.342Z,1.90
2018-06-23T20:53:47.728Z,4.53
2018-06-23T20:56:16.138Z,5.00
2018-06-23T20:58:44.522Z,5.87
2018-06-23T21:01:12.931Z,5.53
2018-06-23T21:03:41.305Z,4.97
2018-06-23T21:06:09.734Z,3.37
2018-06-23T21:08:38.146Z,4.20
2018-06-23T21:11:06.803Z,3.70
2018-06-23T21:13:35.403Z,3.10
2018-06-23T21:16:03.786Z,2.77
2018-06-23T21:18:33.134Z,2.40
2018-06-23T21:21:01.598Z,3.40
2018-06-23T21:23:30.006Z,3.70
2018-06-23T21:25:58.399Z,3.80
2018-06-23T21:28:28.641Z,3.20
2018-06-23T21:30:57.068Z,3.23
2018-06-23T21:33:25.458Z,3.67
2018-06-23T21:35:53.838Z,6.27
2018-06-23T21:38:22.247Z,3.63
2018-06-23T21:40:50.671Z,3.33
2018-06-23T21:43:19.144Z,3.02
2018-06-23T21:45:47.521Z,3.50
2018-06-23T21:48:29.062Z,3.30
2018-06-23T21:50:57.447Z,2.67
2018-06-23T21:53:25.851Z,3.33
2018-06-23T21:55:54.242Z,3.40
2018-06-23T21:58:22.726Z,3.70
2018-06-23T22:00:52.490Z,3.40
2018-06-23T22:03:20.894Z,4.40
2018-06-23T22:05:49.265Z,3.67
2018-06-23T22:08:17.663Z,3.87
2018-06-23T22:10:46.057Z,3.90
2018-06-23T22:13:14.462Z,3.73
2018-06-23T22:15:42.839Z,4.00
2018-06-23T22:18:13.280Z,4.30
2018-06-23T22:20:42.817Z,3.37
2018-06-23T22:23:11.295Z,4.17
2018-06-23T22:25:39.681Z,3.70
2018-06-23T22:28:08.087Z,3.87
2018-06-23T22:30:36.503Z,4.20
2018-06-23T22:33:04.999Z,4.67
2018-06-23T22:35:33.378Z,4.80
2018-06-23T22:38:01.754Z,4.97
2018-06-23T22:40:30.164Z,4.60
2018-06-23T22:42:58.548Z,5.40
2018-06-23T22:45:26.946Z,4.53
2018-06-23T22:47:55.343Z,5.23
2018-06-23T22:50:23.750Z,5.50
2018-06-23T22:52:52.130Z,4.10
2018-06-23T22:55:20.529Z,4.90
2018-06-23T22:57:49.867Z,4.43
2018-06-23T23:00:34.879Z,3.95
2018-06-23T23:03:03.262Z,4.90
2018-06-23T23:05:31.670Z,5.43
2018-06-23T23:08:00.044Z,4.30
2018-06-23T23:10:28.462Z,4.87
2018-06-23T23:12:57.064Z,5.10
2018-06-23T23:15:25.402Z,4.73
2018-06-23T23:17:53.786Z,5.20
2018-06-23T23:20:22.187Z,5.10
2018-06-23T23:22:50.561Z,5.23
2018-06-23T23:25:18.962Z,5.43
2018-06-23T23:27:47.349Z,5.80
2018-06-23T23:30:24.579Z,5.67
2018-06-23T23:32:52.961Z,5.43
2018-06-23T23:35:21.359Z,5.77
2018-06-23T23:37:49.734Z,4.30
2018-06-23T23:40:18.234Z,4.50
2018-06-23T23:42:46.625Z,5.07
2018-06-23T23:45:15.021Z,4.90
2018-06-23T23:47:43.410Z,4.97
2018-06-23T23:50:11.847Z,4.23
2018-06-23T23:52:40.227Z,4.17
2018-06-23T23:55:08.677Z,4.00
2018-06-23T23:57:37.077Z,4.83
